Time;durP1;ratioP1;P1;durP2;ratioP2;P2;SDS_P1;SDS_P2;PMS_P1;PMS_P2;Temp;Humidity;BMP_temperature;BMP_pressure;BME280_temperature;BME280_humidity;BME280_pressure;Samples;Min_cycle;Max_cycle;Signal;HPM_P1;HPM_P2
2023/12/12 00:00:29;;;;;;;6.82;2.30;;;6.50;99.90;;;;;;4987033;28;20449;-73
2023/12/12 00:02:58;;;;;;;7.97;2.20;;;6.40;99.90;;;;;;4988786;28;20034;-73
2023/12/12 00:05:24;;;;;;;11.48;3.15;;;6.20;99.90;;;;;;4989123;28;20434;-74
2023/12/12 00:07:50;;;;;;;9.43;2.65;;;6.20;99.90;;;;;;4991105;28;20031;-74
2023/12/12 00:10:16;;;;;;;11.80;3.90;;;6.10;99.90;;;;;;4988612;28;20360;-74
2023/12/12 00:12:42;;;;;;;15.90;3.63;;;6.10;99.90;;;;;;4987975;28;20390;-73
2023/12/12 00:15:08;;;;;;;17.40;3.72;;;6.00;99.90;;;;;;4987314;28;20042;-73
2023/12/12 00:17:34;;;;;;;11.93;3.65;;;6.00;99.90;;;;;;4988677;28;20117;-74
2023/12/12 00:20:00;;;;;;;13.95;3.55;;;6.00;99.90;;;;;;4989993;28;20038;-73
2023/12/12 00:22:26;;;;;;;14.68;4.18;;;6.00;99.90;;;;;;4989317;28;20022;-73
2023/12/12 00:24:51;;;;;;;11.98;4.18;;;5.90;99.90;;;;;;4989503;28;20041;-74
2023/12/12 00:27:17;;;;;;;11.93;4.47;;;5.90;99.90;;;;;;4994111;28;20061;-73
2023/12/12 00:29:45;;;;;;;15.25;4.90;;;5.80;99.90;;;;;;4976175;28;20136;-73
2023/12/12 00:32:10;;;;;;;11.40;4.38;;;5.80;99.90;;;;;;4988729;28;20026;-74
2023/12/12 00:34:36;;;;;;;15.73;5.47;;;5.80;99.90;;;;;;4984823;28;20037;-73
2023/12/12 00:37:02;;;;;;;11.63;5.15;;;5.80;99.90;;;;;;4993522;28;20038;-73
2023/12/12 00:39:28;;;;;;;16.33;5.88;;;5.80;99.90;;;;;;4993108;28;20097;-74
2023/12/12 00:41:53;;;;;;;25.50;6.93;;;5.80;99.90;;;;;;4992712;28;20030;-74
2023/12/12 00:44:19;;;;;;;21.13;5.93;;;5.70;99.90;;;;;;4989193;28;20034;-73
2023/12/12 00:46:44;;;;;;;18.98;6.50;;;5.80;99.90;;;;;;4993514;28;20550;-73
2023/12/12 00:49:10;;;;;;;16.75;6.90;;;5.70;99.90;;;;;;4987422;28;20031;-73
2023/12/12 00:51:36;;;;;;;22.27;6.95;;;5.80;99.90;;;;;;4994950;28;20474;-73
2023/12/12 00:54:01;;;;;;;18.58;6.88;;;5.80;99.90;;;;;;4989969;28;20022;-73
2023/12/12 00:56:27;;;;;;;22.85;7.47;;;5.80;99.90;;;;;;4989636;28;20038;-73
2023/12/12 00:58:52;;;;;;;19.73;7.45;;;5.70;99.90;;;;;;4988245;28;20050;-73
2023/12/12 01:01:18;;;;;;;20.00;8.00;;;5.70;99.90;;;;;;4992746;28;20466;-74
2023/12/12 01:03:44;;;;;;;20.45;7.03;;;5.70;99.90;;;;;;4983006;28;20072;-74
2023/12/12 01:06:20;;;;;;;20.77;8.45;;;5.70;99.90;;;;;;4990892;28;20113;-75
2023/12/12 01:08:46;;;;;;;16.98;7.75;;;5.60;99.90;;;;;;4990944;28;20030;-75
2023/12/12 01:11:11;;;;;;;18.27;7.72;;;5.70;99.90;;;;;;4988991;28;20374;-75
2023/12/12 01:13:37;;;;;;;19.23;7.32;;;5.60;99.90;;;;;;4985727;28;20165;-74
2023/12/12 01:16:03;;;;;;;24.48;8.70;;;5.60;99.90;;;;;;4992618;28;20050;-74
2023/12/12 01:18:30;;;;;;;23.10;7.78;;;5.60;99.90;;;;;;4976435;28;20018;-73
2023/12/12 01:20:56;;;;;;;23.55;8.40;;;5.60;99.90;;;;;;4988713;28;20030;-73
2023/12/12 01:23:21;;;;;;;19.63;9.57;;;5.60;99.90;;;;;;4988310;28;20474;-73
2023/12/12 01:25:47;;;;;;;21.98;8.98;;;5.60;99.90;;;;;;4988316;28;20121;-73
2023/12/12 01:28:13;;;;;;;20.60;8.50;;;5.60;99.90;;;;;;4984480;28;20030;-73
2023/12/12 01:30:38;;;;;;;19.13;7.97;;;5.60;99.90;;;;;;4983280;28;20117;-72
2023/12/12 01:33:04;;;;;;;28.60;9.95;;;5.60;99.90;;;;;;4984164;28;20027;-74
2023/12/12 01:35:30;;;;;;;23.90;8.88;;;5.50;99.90;;;;;;4970278;28;20077;-74
2023/12/12 01:37:55;;;;;;;24.42;9.15;;;5.50;99.90;;;;;;4993396;28;20034;-75
2023/12/12 01:40:22;;;;;;;25.48;9.68;;;5.50;99.90;;;;;;4987284;28;20023;-74
2023/12/12 01:42:47;;;;;;;26.83;10.02;;;5.50;99.90;;;;;;4991495;28;20053;-73
2023/12/12 01:45:13;;;;;;;22.02;8.98;;;5.40;99.90;;;;;;4990730;28;20112;-73
2023/12/12 01:47:39;;;;;;;22.65;9.77;;;5.40;99.90;;;;;;4991585;28;20053;-73
2023/12/12 01:50:06;;;;;;;20.25;9.63;;;5.40;99.90;;;;;;4989631;28;20085;-74
2023/12/12 01:52:33;;;;;;;18.75;9.02;;;5.40;99.90;;;;;;4982519;28;20027;-73
2023/12/12 01:54:59;;;;;;;19.95;8.38;;;5.40;99.90;;;;;;4989838;28;20033;-73
2023/12/12 01:57:25;;;;;;;21.88;9.43;;;5.40;99.90;;;;;;4990006;28;20038;-74
2023/12/12 01:59:51;;;;;;;18.75;9.02;;;5.40;99.90;;;;;;4990503;28;20474;-75
2023/12/12 02:02:18;;;;;;;27.98;9.93;;;5.40;99.90;;;;;;4986673;28;20034;-74
2023/12/12 02:04:45;;;;;;;22.17;9.13;;;5.30;99.90;;;;;;4989581;28;20033;-75
2023/12/12 02:07:12;;;;;;;20.02;9.70;;;5.30;99.90;;;;;;4988246;28;20026;-74
2023/12/12 02:09:39;;;;;;;21.52;8.93;;;5.30;99.90;;;;;;4982245;28;20030;-73
2023/12/12 02:12:04;;;;;;;23.40;9.88;;;5.30;99.90;;;;;;4987884;28;20038;-73
2023/12/12 02:14:31;;;;;;;22.55;9.45;;;5.20;99.90;;;;;;4989910;28;20030;-73
2023/12/12 02:16:56;;;;;;;22.67;8.95;;;5.20;99.90;;;;;;4979196;28;20023;-74
2023/12/12 02:19:22;;;;;;;23.20;8.93;;;5.20;99.90;;;;;;4988604;28;20093;-74
2023/12/12 02:21:48;;;;;;;21.35;9.52;;;5.10;99.90;;;;;;4984559;28;20125;-73
2023/12/12 02:24:13;;;;;;;25.98;10.10;;;5.10;99.90;;;;;;4979565;28;20035;-74
2023/12/12 02:26:39;;;;;;;22.88;10.30;;;5.20;99.90;;;;;;4989173;28;20031;-73
2023/12/12 02:29:04;;;;;;;17.30;8.93;;;5.10;99.90;;;;;;4985084;28;20101;-73
2023/12/12 02:31:30;;;;;;;26.50;9.10;;;5.20;99.90;;;;;;4986723;28;20034;-73
2023/12/12 02:33:55;;;;;;;23.77;9.52;;;5.20;99.90;;;;;;4989216;28;20508;-73
2023/12/12 02:36:21;;;;;;;22.67;9.48;;;5.20;99.90;;;;;;4989724;28;20038;-73
2023/12/12 02:38:47;;;;;;;27.75;8.70;;;5.20;99.90;;;;;;4991184;28;20044;-73
2023/12/12 02:41:14;;;;;;;24.50;8.68;;;5.20;99.90;;;;;;4987107;28;20422;-73
2023/12/12 02:43:39;;;;;;;26.20;8.95;;;5.20;99.90;;;;;;4989873;28;20026;-73
2023/12/12 02:46:06;;;;;;;22.48;9.10;;;5.20;99.90;;;;;;4989205;28;20101;-73
2023/12/12 02:48:31;;;;;;;21.88;8.98;;;5.20;99.90;;;;;;4985507;28;20569;-73
2023/12/12 02:50:57;;;;;;;21.75;7.97;;;5.20;99.90;;;;;;4985622;28;20117;-73
2023/12/12 02:53:22;;;;;;;23.55;8.27;;;5.20;99.90;;;;;;4987719;28;20041;-73
2023/12/12 02:55:48;;;;;;;29.30;9.02;;;5.20;99.90;;;;;;4986673;28;20515;-73
2023/12/12 02:58:14;;;;;;;23.70;8.90;;;5.20;99.90;;;;;;4988177;28;20042;-74
2023/12/12 03:00:39;;;;;;;27.05;8.77;;;5.10;99.90;;;;;;4986956;28;20113;-73
2023/12/12 03:03:05;;;;;;;21.13;8.15;;;5.10;99.90;;;;;;4989294;28;20537;-73
2023/12/12 03:05:32;;;;;;;23.35;8.20;;;5.10;99.90;;;;;;4969436;28;20061;-74
2023/12/12 03:07:57;;;;;;;25.10;8.88;;;5.00;99.90;;;;;;4982060;28;20495;-73
2023/12/12 03:10:23;;;;;;;22.52;8.20;;;5.00;99.90;;;;;;4990558;28;20092;-73
2023/12/12 03:12:48;;;;;;;28.60;9.98;;;4.90;99.90;;;;;;4991773;28;20106;-74
2023/12/12 03:15:14;;;;;;;21.55;8.32;;;4.90;99.90;;;;;;4986730;28;20101;-73
2023/12/12 03:17:40;;;;;;;24.20;7.93;;;4.90;99.90;;;;;;4986129;28;20031;-73
2023/12/12 03:20:06;;;;;;;20.98;7.47;;;4.90;99.90;;;;;;4989367;28;20036;-73
2023/12/12 03:22:32;;;;;;;26.67;9.43;;;4.90;99.90;;;;;;4987382;28;20430;-73
2023/12/12 03:24:57;;;;;;;22.45;9.82;;;4.90;99.90;;;;;;4984635;28;20035;-74
2023/12/12 03:27:23;;;;;;;21.85;8.20;;;4.90;99.90;;;;;;4986759;28;20022;-74
2023/12/12 03:29:48;;;;;;;20.70;7.53;;;5.00;99.90;;;;;;4965315;28;20042;-73
2023/12/12 03:32:14;;;;;;;30.98;7.93;;;4.90;99.90;;;;;;4988777;28;20034;-74
2023/12/12 03:34:40;;;;;;;23.83;7.57;;;4.90;99.90;;;;;;4987814;28;20058;-74
2023/12/12 03:37:05;;;;;;;20.80;8.35;;;4.90;99.90;;;;;;4982866;28;20034;-73
2023/12/12 03:39:31;;;;;;;27.52;8.90;;;4.90;99.90;;;;;;4984305;28;20057;-74
2023/12/12 03:41:57;;;;;;;26.23;8.90;;;4.80;99.90;;;;;;4990623;28;20026;-74
2023/12/12 03:44:22;;;;;;;32.35;9.18;;;4.80;99.90;;;;;;4985791;28;20044;-74
2023/12/12 03:46:48;;;;;;;25.40;8.68;;;4.80;99.90;;;;;;4987429;28;20065;-74
2023/12/12 03:49:14;;;;;;;25.48;8.38;;;4.80;99.90;;;;;;4986296;28;20988;-73
2023/12/12 03:51:39;;;;;;;26.08;7.72;;;4.90;99.90;;;;;;4989127;28;20082;-73
2023/12/12 03:54:05;;;;;;;31.92;8.70;;;4.90;99.90;;;;;;4988084;28;20035;-73
2023/12/12 03:56:30;;;;;;;25.63;8.98;;;5.00;99.90;;;;;;4985355;28;20073;-72
2023/12/12 03:58:58;;;;;;;23.20;8.73;;;5.10;99.90;;;;;;4987673;28;20764;-73
2023/12/12 04:01:23;;;;;;;27.23;7.88;;;5.20;99.90;;;;;;4985765;28;20030;-72
2023/12/12 04:03:49;;;;;;;22.25;7.50;;;5.20;99.90;;;;;;4990163;28;20057;-74
2023/12/12 04:06:14;;;;;;;26.73;7.25;;;5.30;99.90;;;;;;4989468;28;20471;-72
2023/12/12 04:08:40;;;;;;;27.08;8.23;;;5.30;99.90;;;;;;4983638;28;20039;-72
2023/12/12 04:11:05;;;;;;;22.15;7.40;;;5.40;99.90;;;;;;4972745;28;20064;-74
2023/12/12 04:13:31;;;;;;;24.25;8.57;;;5.40;99.90;;;;;;4991350;28;20395;-72
2023/12/12 04:15:57;;;;;;;19.35;7.60;;;5.50;99.90;;;;;;4970496;28;20121;-72
2023/12/12 04:18:22;;;;;;;27.63;7.97;;;5.60;99.90;;;;;;4987964;28;20034;-72
2023/12/12 04:20:48;;;;;;;32.03;8.70;;;5.60;99.90;;;;;;4985965;28;20042;-73
2023/12/12 04:23:13;;;;;;;21.35;7.55;;;5.70;99.90;;;;;;4985603;28;20072;-74
2023/12/12 04:25:39;;;;;;;36.25;10.27;;;5.80;99.90;;;;;;4986936;28;20849;-73
2023/12/12 04:28:04;;;;;;;26.40;8.85;;;5.80;99.90;;;;;;4987612;28;20088;-74
2023/12/12 04:30:30;;;;;;;30.75;8.27;;;5.80;99.90;;;;;;4991060;28;20026;-74
2023/12/12 04:32:56;;;;;;;34.00;9.20;;;5.90;99.90;;;;;;4991077;28;20022;-74
2023/12/12 04:35:21;;;;;;;28.35;9.27;;;5.90;99.90;;;;;;4989184;28;20042;-74
2023/12/12 04:37:47;;;;;;;32.08;8.25;;;6.00;99.90;;;;;;4986977;28;20659;-74
2023/12/12 04:40:13;;;;;;;36.03;7.72;;;6.00;99.90;;;;;;4985869;28;20497;-74
2023/12/12 04:42:38;;;;;;;34.47;8.20;;;5.90;99.90;;;;;;4968867;28;20025;-74
2023/12/12 04:45:05;;;;;;;26.90;8.32;;;6.00;99.90;;;;;;4988179;28;20493;-72
2023/12/12 04:47:30;;;;;;;25.48;7.15;;;6.00;99.90;;;;;;4990356;28;20030;-74
2023/12/12 04:49:56;;;;;;;29.80;7.30;;;6.00;99.90;;;;;;4985984;28;20052;-75
2023/12/12 04:52:22;;;;;;;34.72;8.60;;;5.90;99.90;;;;;;4989835;28;20042;-74
2023/12/12 04:54:48;;;;;;;33.22;9.18;;;5.90;99.90;;;;;;4988682;28;20051;-74
2023/12/12 04:57:13;;;;;;;31.33;8.10;;;5.90;99.90;;;;;;4988103;28;20118;-74
2023/12/12 04:59:39;;;;;;;32.03;9.02;;;5.90;99.90;;;;;;4986545;28;20019;-74
2023/12/12 05:02:04;;;;;;;31.23;8.05;;;5.80;99.90;;;;;;4987561;28;20237;-74
2023/12/12 05:04:30;;;;;;;31.00;7.35;;;5.80;99.90;;;;;;4988967;28;20073;-74
2023/12/12 05:06:56;;;;;;;34.17;6.97;;;5.70;99.90;;;;;;4989268;28;20041;-74
2023/12/12 05:09:21;;;;;;;30.17;7.55;;;5.70;99.90;;;;;;4988410;28;20171;-71
2023/12/12 05:11:47;;;;;;;26.08;7.18;;;5.60;99.90;;;;;;4989555;28;20801;-74
2023/12/12 05:14:14;;;;;;;25.45;6.13;;;5.60;99.90;;;;;;4992420;28;20061;-74
2023/12/12 05:16:39;;;;;;;27.45;7.07;;;5.50;99.90;;;;;;4986764;28;20038;-74
2023/12/12 05:19:05;;;;;;;30.98;7.55;;;5.40;99.90;;;;;;4991571;28;20023;-74
2023/12/12 05:21:31;;;;;;;25.25;7.90;;;5.30;99.90;;;;;;4991935;28;20390;-74
2023/12/12 05:23:56;;;;;;;28.75;6.20;;;5.30;99.90;;;;;;4990493;28;20042;-74
2023/12/12 05:26:22;;;;;;;26.90;6.63;;;5.30;99.90;;;;;;4992395;28;20278;-74
2023/12/12 05:28:47;;;;;;;18.67;6.80;;;5.20;99.90;;;;;;4991126;28;20094;-74
2023/12/12 05:31:13;;;;;;;31.55;8.35;;;5.20;99.90;;;;;;4986990;28;20117;-74
2023/12/12 05:33:39;;;;;;;32.10;7.97;;;5.30;99.90;;;;;;4991647;28;20069;-74
2023/12/12 05:36:05;;;;;;;33.28;8.40;;;5.30;99.90;;;;;;4990064;28;20421;-74
2023/12/12 05:38:30;;;;;;;28.52;7.85;;;5.30;99.90;;;;;;4988661;28;20080;-74
2023/12/12 05:40:56;;;;;;;26.27;7.68;;;5.40;99.90;;;;;;4990594;28;20522;-73
2023/12/12 05:43:22;;;;;;;28.45;8.98;;;5.40;99.90;;;;;;4988837;28;20030;-74
2023/12/12 05:45:48;;;;;;;29.40;7.75;;;5.50;99.90;;;;;;4981753;28;20034;-73
2023/12/12 05:48:13;;;;;;;25.30;7.90;;;5.60;99.90;;;;;;4980674;28;20037;-74
2023/12/12 05:50:39;;;;;;;32.38;9.55;;;5.60;99.90;;;;;;4986207;28;20038;-72
2023/12/12 05:53:04;;;;;;;34.67;10.02;;;5.60;99.90;;;;;;4982653;28;20164;-71
2023/12/12 05:55:30;;;;;;;25.13;9.50;;;5.70;99.90;;;;;;4986444;28;20042;-72
2023/12/12 05:57:56;;;;;;;41.88;10.38;;;5.70;99.90;;;;;;4986747;28;20061;-72
2023/12/12 06:00:22;;;;;;;41.58;11.68;;;5.80;99.90;;;;;;4980584;28;20165;-71
2023/12/12 06:02:48;;;;;;;53.63;12.93;;;5.80;99.90;;;;;;4986064;28;20030;-73
2023/12/12 06:05:14;;;;;;;50.92;11.30;;;5.80;99.90;;;;;;4987349;28;20022;-73
2023/12/12 06:07:42;;;;;;;43.13;13.63;;;5.90;99.90;;;;;;4974905;28;20030;-73
2023/12/12 06:10:08;;;;;;;45.13;11.23;;;6.00;99.90;;;;;;4987190;28;20023;-73
2023/12/12 06:12:34;;;;;;;45.40;11.50;;;6.00;99.90;;;;;;4970943;28;20031;-73
2023/12/12 06:15:01;;;;;;;38.55;11.82;;;6.10;99.90;;;;;;4987364;28;20121;-73
2023/12/12 06:17:26;;;;;;;39.38;10.52;;;6.10;99.90;;;;;;4984040;28;20081;-73
2023/12/12 06:19:52;;;;;;;51.88;10.88;;;6.20;99.90;;;;;;4989984;28;20057;-73
2023/12/12 06:22:18;;;;;;;44.17;9.93;;;6.20;99.90;;;;;;4986485;28;20378;-73
2023/12/12 06:24:45;;;;;;;36.63;10.73;;;6.30;99.90;;;;;;4989373;28;20382;-73
2023/12/12 06:27:10;;;;;;;38.63;10.88;;;6.30;99.90;;;;;;4991227;28;20509;-73
2023/12/12 06:29:36;;;;;;;47.20;11.80;;;6.30;99.90;;;;;;4992479;28;20057;-73
2023/12/12 06:32:02;;;;;;;41.55;11.50;;;6.30;99.90;;;;;;4978761;28;20117;-73
2023/12/12 06:34:27;;;;;;;39.38;10.45;;;6.40;99.90;;;;;;4985840;28;20030;-73
2023/12/12 06:36:53;;;;;;;49.05;13.13;;;6.40;99.90;;;;;;4982842;28;20486;-73
2023/12/12 06:39:19;;;;;;;44.78;13.02;;;6.50;99.90;;;;;;4986328;28;20025;-72
2023/12/12 06:41:44;;;;;;;46.58;11.50;;;6.50;99.90;;;;;;4990253;28;20419;-73
2023/12/12 06:44:10;;;;;;;39.08;10.30;;;6.60;99.90;;;;;;4988674;28;20034;-73
2023/12/12 06:46:36;;;;;;;49.72;11.82;;;6.70;99.90;;;;;;4992151;28;20026;-73
2023/12/12 06:49:03;;;;;;;50.55;11.45;;;6.70;99.90;;;;;;4988085;28;20037;-73
2023/12/12 06:51:29;;;;;;;46.70;9.73;;;6.70;99.90;;;;;;4984551;28;20019;-73
2023/12/12 06:53:57;;;;;;;50.47;10.10;;;6.70;99.90;;;;;;4990534;28;20092;-73
2023/12/12 06:56:23;;;;;;;43.83;9.95;;;6.70;99.90;;;;;;4989392;28;20406;-73
2023/12/12 06:58:48;;;;;;;35.33;9.80;;;6.70;99.90;;;;;;4984953;28;20047;-73
2023/12/12 07:01:14;;;;;;;39.20;10.20;;;6.70;99.90;;;;;;4990731;28;20030;-73
2023/12/12 07:03:40;;;;;;;46.20;12.52;;;6.80;99.90;;;;;;4967898;28;20100;-73
2023/12/12 07:06:06;;;;;;;46.20;10.10;;;6.80;99.90;;;;;;4985061;28;20032;-73
2023/12/12 07:08:32;;;;;;;48.95;10.55;;;6.80;99.90;;;;;;4985270;28;20031;-73
2023/12/12 07:10:58;;;;;;;53.83;9.63;;;6.80;99.90;;;;;;4979101;28;20528;-73
2023/12/12 07:13:23;;;;;;;56.47;9.80;;;6.90;99.90;;;;;;4979600;28;20179;-73
2023/12/12 07:15:49;;;;;;;38.78;8.20;;;6.90;99.90;;;;;;4984562;28;20049;-73
2023/12/12 07:18:15;;;;;;;34.53;8.43;;;6.90;99.90;;;;;;4986137;28;20483;-73
2023/12/12 07:20:44;;;;;;;52.63;9.70;;;6.90;99.90;;;;;;4983193;28;20057;-73
2023/12/12 07:23:09;;;;;;;36.63;8.73;;;7.00;99.90;;;;;;4988131;28;20026;-73
2023/12/12 07:25:35;;;;;;;35.85;8.32;;;7.00;99.90;;;;;;4968178;28;20125;-73
2023/12/12 07:28:01;;;;;;;42.35;8.57;;;7.00;99.90;;;;;;4989556;28;20034;-73
2023/12/12 07:30:29;;;;;;;39.20;8.15;;;7.00;99.90;;;;;;4980073;28;20026;-73
2023/12/12 07:32:55;;;;;;;44.58;9.10;;;7.00;99.90;;;;;;4985801;28;20376;-73
2023/12/12 07:35:21;;;;;;;45.97;8.35;;;7.10;99.90;;;;;;4986316;28;20026;-73
2023/12/12 07:37:46;;;;;;;30.33;7.85;;;7.10;99.90;;;;;;4981784;28;20034;-73
2023/12/12 07:40:13;;;;;;;32.10;7.68;;;7.20;99.90;;;;;;4981271;28;20113;-72
2023/12/12 07:42:39;;;;;;;30.08;7.75;;;7.10;99.90;;;;;;4971326;28;20073;-72
2023/12/12 07:45:06;;;;;;;47.00;8.27;;;7.10;99.90;;;;;;4985288;28;20034;-72
2023/12/12 07:47:33;;;;;;;30.85;7.80;;;7.10;99.90;;;;;;4984309;28;20019;-72
2023/12/12 07:49:59;;;;;;;45.42;8.95;;;7.20;99.90;;;;;;4985514;28;20144;-73
2023/12/12 07:52:25;;;;;;;30.45;8.20;;;7.20;99.90;;;;;;4987396;28;20073;-73
2023/12/12 07:54:51;;;;;;;38.78;8.40;;;7.20;99.90;;;;;;4986581;28;20074;-74
2023/12/12 07:57:16;;;;;;;46.17;8.80;;;7.20;99.90;;;;;;4988384;28;20169;-74
2023/12/12 07:59:43;;;;;;;56.40;9.32;;;7.20;99.90;;;;;;4986561;28;20082;-72
2023/12/12 08:02:08;;;;;;;37.00;9.07;;;7.20;99.90;;;;;;4988086;28;20037;-73
2023/12/12 08:04:35;;;;;;;47.13;8.43;;;7.20;99.90;;;;;;4987638;28;20030;-73
2023/12/12 08:07:01;;;;;;;45.50;7.97;;;7.30;99.90;;;;;;4986471;28;20537;-74
2023/12/12 08:09:29;;;;;;;35.63;8.00;;;7.30;99.90;;;;;;4984782;28;21197;-74
2023/12/12 08:11:55;;;;;;;28.23;8.15;;;7.30;99.90;;;;;;4988416;28;20030;-74
2023/12/12 08:14:21;;;;;;;41.33;10.07;;;7.30;99.90;;;;;;4988720;28;20034;-75
2023/12/12 08:16:47;;;;;;;46.08;8.60;;;7.30;99.90;;;;;;4987120;28;20038;-75
2023/12/12 08:19:13;;;;;;;41.28;9.00;;;7.30;99.90;;;;;;4986228;28;20066;-75
2023/12/12 08:21:38;;;;;;;39.78;8.25;;;7.30;99.90;;;;;;4975629;28;20623;-75
2023/12/12 08:24:05;;;;;;;44.20;9.60;;;7.40;99.90;;;;;;4984127;28;20019;-75
2023/12/12 08:26:39;;;;;;;43.97;10.95;;;7.40;99.90;;;;;;4986860;28;20062;-76
2023/12/12 08:29:05;;;;;;;46.13;10.20;;;7.40;99.90;;;;;;4984604;28;20424;-76
2023/12/12 08:31:31;;;;;;;35.78;9.07;;;7.40;99.90;;;;;;4985927;28;20042;-76
2023/12/12 08:33:57;;;;;;;39.63;9.55;;;7.40;99.90;;;;;;4987573;28;20513;-76
2023/12/12 08:36:22;;;;;;;52.55;12.10;;;7.40;99.90;;;;;;4983284;28;20027;-75
2023/12/12 08:38:50;;;;;;;38.40;10.52;;;7.40;99.90;;;;;;4977659;28;20026;-74
2023/12/12 08:41:16;;;;;;;48.97;11.13;;;7.40;99.90;;;;;;4987160;28;20057;-74
2023/12/12 08:43:41;;;;;;;33.17;10.18;;;7.40;99.90;;;;;;4981639;28;20023;-74
2023/12/12 08:46:07;;;;;;;41.75;11.27;;;7.40;99.90;;;;;;4991696;28;20110;-75
2023/12/12 08:48:33;;;;;;;32.30;9.30;;;7.40;99.90;;;;;;4983398;28;20058;-74
2023/12/12 08:50:58;;;;;;;44.55;11.57;;;7.30;99.90;;;;;;4988687;28;20114;-75
2023/12/12 08:53:26;;;;;;;38.60;10.95;;;7.30;99.90;;;;;;4991044;28;20157;-74
2023/12/12 08:55:55;;;;;;;40.35;10.27;;;7.30;99.90;;;;;;4983702;28;20030;-73
2023/12/12 08:58:25;;;;;;;43.17;11.82;;;7.30;99.90;;;;;;4994632;28;20057;-72
2023/12/12 09:00:54;;;;;;;46.20;10.65;;;7.30;99.90;;;;;;4994125;28;20109;-73
2023/12/12 09:03:21;;;;;;;44.90;10.73;;;7.30;99.90;;;;;;4992530;28;20027;-74
2023/12/12 09:05:46;;;;;;;39.70;10.85;;;7.40;99.90;;;;;;4990025;28;20510;-74
2023/12/12 09:08:12;;;;;;;29.83;9.65;;;7.50;99.90;;;;;;4987449;28;20031;-74
2023/12/12 09:10:38;;;;;;;34.92;10.50;;;7.40;99.90;;;;;;4975449;28;20055;-75
2023/12/12 09:13:04;;;;;;;32.38;10.57;;;7.40;99.90;;;;;;4984877;28;20034;-74
2023/12/12 09:15:31;;;;;;;46.38;11.40;;;7.50;99.90;;;;;;4980070;28;20040;-75
2023/12/12 09:17:57;;;;;;;36.65;10.98;;;7.50;99.90;;;;;;4992482;28;20272;-74
2023/12/12 09:20:23;;;;;;;30.38;9.88;;;7.50;99.90;;;;;;4994289;28;20050;-74
2023/12/12 09:22:48;;;;;;;39.83;11.85;;;7.60;99.90;;;;;;4982641;28;20039;-74
2023/12/12 09:25:14;;;;;;;36.95;11.85;;;7.60;99.90;;;;;;4987723;28;20504;-74
2023/12/12 09:27:39;;;;;;;33.28;11.10;;;7.70;99.90;;;;;;4970465;28;20031;-74
2023/12/12 09:30:06;;;;;;;34.03;10.55;;;7.70;99.90;;;;;;4982062;28;20688;-75
2023/12/12 09:32:32;;;;;;;35.63;10.73;;;7.80;99.90;;;;;;4992231;28;20038;-74
2023/12/12 09:34:57;;;;;;;39.78;11.20;;;7.80;99.90;;;;;;4995564;28;20050;-74
2023/12/12 09:37:23;;;;;;;35.78;10.13;;;7.90;99.90;;;;;;4987962;28;20117;-75
2023/12/12 09:39:49;;;;;;;37.92;10.13;;;8.00;99.90;;;;;;4992976;28;20084;-75
2023/12/12 09:42:17;;;;;;;48.03;10.68;;;8.00;99.90;;;;;;4984250;28;20085;-74
2023/12/12 09:44:45;;;;;;;38.63;10.07;;;8.00;99.90;;;;;;4987145;28;20034;-74
2023/12/12 09:47:11;;;;;;;33.95;10.00;;;8.10;99.90;;;;;;4979398;28;20126;-74
2023/12/12 09:49:38;;;;;;;40.25;10.40;;;8.20;99.90;;;;;;4976235;28;20038;-74
2023/12/12 09:52:04;;;;;;;30.83;9.00;;;8.20;99.90;;;;;;4987888;28;20026;-74
2023/12/12 09:54:30;;;;;;;31.38;8.90;;;8.10;99.90;;;;;;4992030;28;20049;-75
2023/12/12 09:56:56;;;;;;;36.17;10.05;;;8.20;99.90;;;;;;4990957;28;20034;-74
2023/12/12 09:59:21;;;;;;;38.78;10.05;;;8.20;99.90;;;;;;4992622;28;20042;-75
2023/12/12 10:01:49;;;;;;;35.38;10.50;;;8.20;99.90;;;;;;4974182;28;20607;-75
2023/12/12 10:04:17;;;;;;;55.80;10.40;;;8.20;99.90;;;;;;4992001;28;20030;-75
2023/12/12 10:06:50;;;;;;;28.20;8.60;;;8.30;99.90;;;;;;4977074;28;20050;-75
2023/12/12 10:09:16;;;;;;;32.13;9.43;;;8.30;99.90;;;;;;4978769;28;20475;-74
2023/12/12 10:11:43;;;;;;;40.13;9.68;;;8.40;99.90;;;;;;4980247;28;20026;-74
2023/12/12 10:14:10;;;;;;;34.30;8.77;;;8.50;99.90;;;;;;4982053;28;20027;-75
2023/12/12 10:16:35;;;;;;;32.65;8.23;;;8.60;99.90;;;;;;4970737;28;20038;-75
2023/12/12 10:19:01;;;;;;;30.05;7.68;;;8.70;99.90;;;;;;4986963;28;20030;-75
2023/12/12 10:21:28;;;;;;;24.45;8.02;;;8.70;99.90;;;;;;4983161;28;20664;-75
2023/12/12 10:23:54;;;;;;;25.48;8.48;;;8.90;99.90;;;;;;4978618;28;20026;-74
2023/12/12 10:26:39;;;;;;;28.23;8.38;;;9.00;99.90;;;;;;4968469;28;20026;-72
2023/12/12 10:29:05;;;;;;;31.55;8.38;;;9.10;99.90;;;;;;4962925;28;20053;-74
2023/12/12 10:31:30;;;;;;;30.40;7.57;;;9.20;99.90;;;;;;4981030;28;20423;-73
2023/12/12 10:33:57;;;;;;;25.90;7.07;;;9.30;99.90;;;;;;4982475;28;20038;-75
2023/12/12 10:36:24;;;;;;;25.77;6.57;;;9.40;99.90;;;;;;4990882;28;20050;-73
2023/12/12 10:38:50;;;;;;;27.83;6.90;;;9.50;99.90;;;;;;4992338;28;20018;-73
2023/12/12 10:41:17;;;;;;;35.70;6.97;;;9.50;99.90;;;;;;4988061;28;20045;-77
2023/12/12 10:43:44;;;;;;;26.25;6.60;;;9.60;99.90;;;;;;4984106;28;20521;-74
2023/12/12 10:46:12;;;;;;;21.67;5.57;;;9.80;99.90;;;;;;4980526;28;20125;-73
2023/12/12 10:48:43;;;;;;;25.38;6.28;;;9.80;99.90;;;;;;4985240;28;20065;-73
2023/12/12 10:51:14;;;;;;;23.33;6.47;;;10.00;99.90;;;;;;4987752;28;21619;-73
2023/12/12 10:53:42;;;;;;;23.42;5.18;;;10.00;99.90;;;;;;4983435;28;20149;-73
2023/12/12 10:56:09;;;;;;;28.83;6.15;;;10.00;99.90;;;;;;4986323;28;20042;-73
2023/12/12 10:58:37;;;;;;;22.58;5.38;;;10.00;99.90;;;;;;4966048;28;20053;-73
2023/12/12 11:01:03;;;;;;;22.83;4.97;;;10.00;99.90;;;;;;4985867;28;20026;-73
2023/12/12 11:03:32;;;;;;;14.68;4.72;;;10.00;99.90;;;;;;4973786;28;20042;-73
2023/12/12 11:05:59;;;;;;;26.35;5.82;;;10.00;99.90;;;;;;4973847;28;22214;-73
2023/12/12 11:08:27;;;;;;;22.05;4.18;;;10.10;99.90;;;;;;4982549;28;20054;-73
2023/12/12 11:10:54;;;;;;;17.48;4.43;;;10.10;99.90;;;;;;4991153;28;20036;-73
2023/12/12 11:13:22;;;;;;;19.33;4.72;;;10.20;99.90;;;;;;4991784;28;20064;-73
2023/12/12 11:15:49;;;;;;;15.80;4.60;;;10.40;99.90;;;;;;4978617;28;20066;-73
2023/12/12 11:18:15;;;;;;;16.55;4.70;;;10.50;99.90;;;;;;4989514;28;20022;-73
2023/12/12 11:20:41;;;;;;;17.20;3.83;;;10.60;99.90;;;;;;4976150;28;20398;-73
2023/12/12 11:23:07;;;;;;;19.02;5.82;;;10.70;99.90;;;;;;4984850;28;20030;-73
2023/12/12 11:25:37;;;;;;;24.75;5.72;;;10.70;99.90;;;;;;4971556;28;20034;-73
2023/12/12 11:28:04;;;;;;;14.43;3.63;;;10.70;99.90;;;;;;4978217;28;20073;-73
2023/12/12 11:30:34;;;;;;;25.65;5.40;;;10.80;99.90;;;;;;4985080;28;20426;-73
2023/12/12 11:33:02;;;;;;;17.10;4.70;;;10.80;99.90;;;;;;4986324;28;20061;-73
2023/12/12 11:35:30;;;;;;;22.95;4.45;;;10.80;99.90;;;;;;4986362;28;20117;-73
2023/12/12 11:38:04;;;;;;;13.02;3.67;;;10.90;99.90;;;;;;4985412;28;20081;-73
2023/12/12 11:40:32;;;;;;;20.88;5.85;;;11.00;99.90;;;;;;4972443;28;20034;-73
2023/12/12 11:43:25;;;;;;;13.82;3.90;;;11.10;99.90;;;;;;4984712;28;20041;-73
2023/12/12 11:45:54;;;;;;;18.10;4.43;;;11.20;99.90;;;;;;4977041;28;20478;-73
2023/12/12 11:48:20;;;;;;;19.17;4.15;;;11.30;99.90;;;;;;4987699;28;20014;-73
2023/12/12 11:50:46;;;;;;;14.35;3.80;;;11.40;99.90;;;;;;4981096;28;20057;-73
2023/12/12 11:53:11;;;;;;;12.45;2.88;;;11.50;99.90;;;;;;4985196;28;20591;-73
2023/12/12 11:55:42;;;;;;;13.23;3.65;;;11.60;99.90;;;;;;4977981;28;20038;-73
2023/12/12 11:58:09;;;;;;;13.82;2.70;;;11.80;99.90;;;;;;4982658;28;20065;-73
2023/12/12 12:00:43;;;;;;;14.65;3.63;;;12.00;99.90;;;;;;4980466;28;20026;-73
2023/12/12 12:03:09;;;;;;;8.23;2.13;;;12.00;99.90;;;;;;4987954;28;20105;-73
2023/12/12 12:05:35;;;;;;;7.07;2.20;;;12.10;99.90;;;;;;4988251;28;20480;-73
2023/12/12 12:08:02;;;;;;;10.50;2.80;;;12.20;99.90;;;;;;4986655;28;20143;-73
2023/12/12 12:10:27;;;;;;;12.75;1.70;;;12.20;99.90;;;;;;4970275;28;20030;-73
2023/12/12 12:12:57;;;;;;;9.27;1.85;;;12.30;99.90;;;;;;4968918;28;20080;-73
2023/12/12 12:15:24;;;;;;;8.43;1.70;;;12.40;99.90;;;;;;4986784;28;20434;-73
2023/12/12 12:17:51;;;;;;;6.88;1.33;;;12.30;99.90;;;;;;4971081;28;20030;-73
2023/12/12 12:20:17;;;;;;;9.13;1.55;;;12.30;99.90;;;;;;4985828;28;20101;-73
2023/12/12 12:22:42;;;;;;;5.75;1.35;;;12.10;99.90;;;;;;4987753;28;20030;-73
2023/12/12 12:25:08;;;;;;;8.48;1.17;;;12.00;99.90;;;;;;4990715;28;20139;-73
2023/12/12 12:27:52;;;;;;;8.88;1.98;;;11.90;99.90;;;;;;4992265;28;20041;-73
2023/12/12 12:30:18;;;;;;;7.85;1.95;;;11.80;99.90;;;;;;4991604;28;20116;-73
2023/12/12 12:33:17;;;;;;;5.32;1.42;;;11.80;99.90;;;;;;4989074;28;20025;-73
2023/12/12 12:35:51;;;;;;;6.95;1.67;;;11.70;99.90;;;;;;4933107;28;20054;-73
2023/12/12 12:38:35;;;;;;;8.52;2.03;;;11.60;99.90;;;;;;4983202;28;20050;-73